sensor_id;sensor_type;location;lat;lon;timestamp;P1;durP1;ratioP1;P2;durP2;ratioP2
38089;SDS011;23904;52.322;10.232;2022-09-14T00:01:15;18.30;;;2.13;;
38089;SDS011;23904;52.322;10.232;2022-09-14T00:03:44;6.95;;;2.58;;
38089;SDS011;23904;52.322;10.232;2022-09-14T00:06:11;8.13;;;2.33;;
38089;SDS011;23904;52.322;10.232;2022-09-14T00:08:39;10.05;;;1.83;;
38089;SDS011;23904;52.322;10.232;2022-09-14T00:11:06;10.25;;;1.88;;
38089;SDS011;23904;52.322;10.232;2022-09-14T00:13:38;10.02;;;1.77;;
38089;SDS011;23904;52.322;10.232;2022-09-14T00:16:07;9.60;;;2.30;;
38089;SDS011;23904;52.322;10.232;2022-09-14T00:18:39;11.52;;;2.00;;
38089;SDS011;23904;52.322;10.232;2022-09-14T00:21:07;5.50;;;1.45;;
38089;SDS011;23904;52.322;10.232;2022-09-14T00:23:35;11.02;;;2.08;;
38089;SDS011;23904;52.322;10.232;2022-09-14T00:26:04;8.88;;;1.60;;
38089;SDS011;23904;52.322;10.232;2022-09-14T00:28:40;8.32;;;1.55;;
38089;SDS011;23904;52.322;10.232;2022-09-14T00:31:09;12.00;;;1.95;;
38089;SDS011;23904;52.322;10.232;2022-09-14T00:33:35;11.18;;;2.10;;
38089;SDS011;23904;52.322;10.232;2022-09-14T00:36:05;7.95;;;2.20;;
38089;SDS011;23904;52.322;10.232;2022-09-14T00:38:33;13.88;;;2.13;;
38089;SDS011;23904;52.322;10.232;2022-09-14T00:41:00;9.43;;;1.98;;
38089;SDS011;23904;52.322;10.232;2022-09-14T00:43:27;7.75;;;2.03;;
38089;SDS011;23904;52.322;10.232;2022-09-14T00:45:53;9.23;;;1.92;;
38089;SDS011;23904;52.322;10.232;2022-09-14T00:48:19;5.88;;;1.35;;
38089;SDS011;23904;52.322;10.232;2022-09-14T00:50:48;8.35;;;1.98;;
38089;SDS011;23904;52.322;10.232;2022-09-14T00:53:14;10.45;;;2.05;;
38089;SDS011;23904;52.322;10.232;2022-09-14T00:55:43;12.73;;;1.83;;
38089;SDS011;23904;52.322;10.232;2022-09-14T00:58:09;11.93;;;2.10;;
38089;SDS011;23904;52.322;10.232;2022-09-14T01:00:35;9.68;;;2.17;;
38089;SDS011;23904;52.322;10.232;2022-09-14T01:03:01;11.23;;;2.03;;
38089;SDS011;23904;52.322;10.232;2022-09-14T01:11:30;12.48;;;2.40;;
38089;SDS011;23904;52.322;10.232;2022-09-14T01:17:05;10.02;;;2.83;;
38089;SDS011;23904;52.322;10.232;2022-09-14T01:20:13;12.35;;;2.58;;
38089;SDS011;23904;52.322;10.232;2022-09-14T01:31:17;11.27;;;2.88;;
38089;SDS011;23904;52.322;10.232;2022-09-14T01:34:23;14.07;;;2.83;;
38089;SDS011;23904;52.322;10.232;2022-09-14T01:36:55;9.73;;;2.80;;
38089;SDS011;23904;52.322;10.232;2022-09-14T01:39:28;9.93;;;2.85;;
38089;SDS011;23904;52.322;10.232;2022-09-14T01:41:58;10.48;;;2.63;;
38089;SDS011;23904;52.322;10.232;2022-09-14T01:44:35;17.92;;;4.20;;
38089;SDS011;23904;52.322;10.232;2022-09-14T01:47:12;12.40;;;2.97;;
38089;SDS011;23904;52.322;10.232;2022-09-14T01:49:54;15.10;;;4.55;;
38089;SDS011;23904;52.322;10.232;2022-09-14T01:52:47;10.25;;;2.75;;
38089;SDS011;23904;52.322;10.232;2022-09-14T01:55:30;13.57;;;3.67;;
38089;SDS011;23904;52.322;10.232;2022-09-14T01:58:07;15.32;;;3.10;;
38089;SDS011;23904;52.322;10.232;2022-09-14T02:01:01;13.00;;;3.78;;
38089;SDS011;23904;52.322;10.232;2022-09-14T02:03:33;14.07;;;3.78;;
38089;SDS011;23904;52.322;10.232;2022-09-14T02:06:09;8.60;;;3.15;;
38089;SDS011;23904;52.322;10.232;2022-09-14T02:08:47;14.23;;;3.30;;
38089;SDS011;23904;52.322;10.232;2022-09-14T02:11:13;11.30;;;2.70;;
38089;SDS011;23904;52.322;10.232;2022-09-14T02:13:42;12.75;;;3.20;;
38089;SDS011;23904;52.322;10.232;2022-09-14T02:16:07;9.18;;;3.38;;
38089;SDS011;23904;52.322;10.232;2022-09-14T02:18:33;6.90;;;2.78;;
38089;SDS011;23904;52.322;10.232;2022-09-14T02:21:03;15.73;;;3.63;;
38089;SDS011;23904;52.322;10.232;2022-09-14T02:23:35;13.02;;;3.80;;
38089;SDS011;23904;52.322;10.232;2022-09-14T02:26:02;8.45;;;3.28;;
38089;SDS011;23904;52.322;10.232;2022-09-14T02:28:28;10.38;;;3.72;;
38089;SDS011;23904;52.322;10.232;2022-09-14T02:34:16;10.80;;;3.10;;
38089;SDS011;23904;52.322;10.232;2022-09-14T02:42:58;10.23;;;4.05;;
38089;SDS011;23904;52.322;10.232;2022-09-14T02:45:39;8.95;;;3.38;;
38089;SDS011;23904;52.322;10.232;2022-09-14T02:51:23;14.07;;;4.93;;
38089;SDS011;23904;52.322;10.232;2022-09-14T02:54:11;14.20;;;4.40;;
38089;SDS011;23904;52.322;10.232;2022-09-14T02:56:42;10.88;;;4.10;;
38089;SDS011;23904;52.322;10.232;2022-09-14T02:59:08;10.20;;;3.55;;
38089;SDS011;23904;52.322;10.232;2022-09-14T03:01:35;10.68;;;3.90;;
38089;SDS011;23904;52.322;10.232;2022-09-14T03:04:01;8.13;;;3.40;;
38089;SDS011;23904;52.322;10.232;2022-09-14T03:06:26;14.63;;;3.88;;
38089;SDS011;23904;52.322;10.232;2022-09-14T03:08:53;11.85;;;4.13;;
38089;SDS011;23904;52.322;10.232;2022-09-14T03:11:19;10.70;;;4.00;;
38089;SDS011;23904;52.322;10.232;2022-09-14T03:13:44;18.25;;;4.40;;
38089;SDS011;23904;52.322;10.232;2022-09-14T03:16:11;13.60;;;4.50;;
38089;SDS011;23904;52.322;10.232;2022-09-14T03:18:39;13.80;;;3.90;;
38089;SDS011;23904;52.322;10.232;2022-09-14T03:21:06;9.38;;;3.88;;
38089;SDS011;23904;52.322;10.232;2022-09-14T03:23:38;32.47;;;4.53;;
38089;SDS011;23904;52.322;10.232;2022-09-14T03:26:08;11.30;;;3.55;;
38089;SDS011;23904;52.322;10.232;2022-09-14T03:28:37;8.38;;;3.47;;
38089;SDS011;23904;52.322;10.232;2022-09-14T03:31:03;10.32;;;4.03;;
38089;SDS011;23904;52.322;10.232;2022-09-14T03:33:31;13.13;;;3.78;;
38089;SDS011;23904;52.322;10.232;2022-09-14T03:35:58;17.25;;;4.43;;
38089;SDS011;23904;52.322;10.232;2022-09-14T03:38:24;9.85;;;3.58;;
38089;SDS011;23904;52.322;10.232;2022-09-14T03:40:53;11.10;;;3.70;;
38089;SDS011;23904;52.322;10.232;2022-09-14T03:43:21;8.95;;;3.53;;
38089;SDS011;23904;52.322;10.232;2022-09-14T03:45:47;11.45;;;3.72;;
38089;SDS011;23904;52.322;10.232;2022-09-14T03:48:13;10.48;;;3.50;;
38089;SDS011;23904;52.322;10.232;2022-09-14T03:50:39;10.35;;;3.20;;
38089;SDS011;23904;52.322;10.232;2022-09-14T03:53:06;13.00;;;3.95;;
38089;SDS011;23904;52.322;10.232;2022-09-14T03:55:32;10.40;;;3.30;;
38089;SDS011;23904;52.322;10.232;2022-09-14T03:57:57;9.43;;;3.00;;
38089;SDS011;23904;52.322;10.232;2022-09-14T04:00:23;7.05;;;3.03;;
38089;SDS011;23904;52.322;10.232;2022-09-14T04:02:49;10.45;;;3.03;;
38089;SDS011;23904;52.322;10.232;2022-09-14T04:05:15;14.57;;;3.85;;
38089;SDS011;23904;52.322;10.232;2022-09-14T04:07:41;9.35;;;2.70;;
38089;SDS011;23904;52.322;10.232;2022-09-14T04:10:06;8.57;;;3.15;;
38089;SDS011;23904;52.322;10.232;2022-09-14T04:12:36;12.20;;;3.53;;
38089;SDS011;23904;52.322;10.232;2022-09-14T04:15:03;18.38;;;3.50;;
38089;SDS011;23904;52.322;10.232;2022-09-14T04:17:30;9.77;;;2.78;;
38089;SDS011;23904;52.322;10.232;2022-09-14T04:19:56;11.40;;;3.33;;
38089;SDS011;23904;52.322;10.232;2022-09-14T04:22:22;11.77;;;2.75;;
38089;SDS011;23904;52.322;10.232;2022-09-14T04:24:47;11.80;;;3.00;;
38089;SDS011;23904;52.322;10.232;2022-09-14T04:27:13;9.60;;;3.17;;
38089;SDS011;23904;52.322;10.232;2022-09-14T04:29:38;12.50;;;4.35;;
38089;SDS011;23904;52.322;10.232;2022-09-14T04:32:04;11.63;;;2.97;;
38089;SDS011;23904;52.322;10.232;2022-09-14T04:34:30;11.05;;;3.90;;
38089;SDS011;23904;52.322;10.232;2022-09-14T04:36:55;10.05;;;3.90;;
38089;SDS011;23904;52.322;10.232;2022-09-14T04:39:21;9.00;;;3.75;;
38089;SDS011;23904;52.322;10.232;2022-09-14T04:41:47;9.30;;;4.00;;
38089;SDS011;23904;52.322;10.232;2022-09-14T04:44:13;14.13;;;4.82;;
38089;SDS011;23904;52.322;10.232;2022-09-14T04:46:39;8.05;;;3.70;;
38089;SDS011;23904;52.322;10.232;2022-09-14T04:49:06;12.38;;;3.35;;
38089;SDS011;23904;52.322;10.232;2022-09-14T04:51:33;9.68;;;3.50;;
38089;SDS011;23904;52.322;10.232;2022-09-14T04:53:59;8.10;;;3.22;;
38089;SDS011;23904;52.322;10.232;2022-09-14T04:56:27;8.15;;;3.25;;
38089;SDS011;23904;52.322;10.232;2022-09-14T04:58:57;7.78;;;3.80;;
38089;SDS011;23904;52.322;10.232;2022-09-14T05:01:28;11.05;;;3.80;;
38089;SDS011;23904;52.322;10.232;2022-09-14T05:03:58;13.13;;;3.72;;
38089;SDS011;23904;52.322;10.232;2022-09-14T05:06:25;13.77;;;4.18;;
38089;SDS011;23904;52.322;10.232;2022-09-14T05:08:54;8.15;;;3.85;;
38089;SDS011;23904;52.322;10.232;2022-09-14T05:11:22;6.53;;;3.33;;
38089;SDS011;23904;52.322;10.232;2022-09-14T05:13:50;9.73;;;3.45;;
38089;SDS011;23904;52.322;10.232;2022-09-14T05:16:17;11.65;;;3.80;;
38089;SDS011;23904;52.322;10.232;2022-09-14T05:18:55;10.93;;;5.38;;
38089;SDS011;23904;52.322;10.232;2022-09-14T05:21:25;7.38;;;3.60;;
38089;SDS011;23904;52.322;10.232;2022-09-14T05:23:58;10.38;;;4.00;;
38089;SDS011;23904;52.322;10.232;2022-09-14T05:26:28;8.85;;;3.38;;
38089;SDS011;23904;52.322;10.232;2022-09-14T05:28:57;21.20;;;4.68;;
38089;SDS011;23904;52.322;10.232;2022-09-14T05:31:25;9.52;;;4.05;;
38089;SDS011;23904;52.322;10.232;2022-09-14T05:33:53;13.77;;;5.07;;
38089;SDS011;23904;52.322;10.232;2022-09-14T05:36:19;9.20;;;4.38;;
38089;SDS011;23904;52.322;10.232;2022-09-14T05:38:45;16.48;;;5.13;;
38089;SDS011;23904;52.322;10.232;2022-09-14T05:41:11;14.30;;;4.40;;
38089;SDS011;23904;52.322;10.232;2022-09-14T05:43:39;8.63;;;4.15;;
38089;SDS011;23904;52.322;10.232;2022-09-14T05:46:10;9.13;;;3.90;;
38089;SDS011;23904;52.322;10.232;2022-09-14T05:48:40;15.07;;;4.28;;
38089;SDS011;23904;52.322;10.232;2022-09-14T05:51:09;11.60;;;4.47;;
38089;SDS011;23904;52.322;10.232;2022-09-14T05:53:41;10.10;;;4.30;;
38089;SDS011;23904;52.322;10.232;2022-09-14T05:56:15;15.48;;;3.85;;
38089;SDS011;23904;52.322;10.232;2022-09-14T05:58:42;14.60;;;5.07;;
38089;SDS011;23904;52.322;10.232;2022-09-14T06:01:09;15.63;;;10.25;;
38089;SDS011;23904;52.322;10.232;2022-09-14T06:03:40;12.68;;;4.53;;
38089;SDS011;23904;52.322;10.232;2022-09-14T06:06:07;14.60;;;4.10;;
38089;SDS011;23904;52.322;10.232;2022-09-14T06:08:35;11.27;;;4.20;;
38089;SDS011;23904;52.322;10.232;2022-09-14T06:11:01;13.48;;;3.90;;
38089;SDS011;23904;52.322;10.232;2022-09-14T06:13:33;13.95;;;3.85;;
38089;SDS011;23904;52.322;10.232;2022-09-14T06:16:02;12.40;;;3.70;;
38089;SDS011;23904;52.322;10.232;2022-09-14T06:18:37;9.27;;;3.53;;
38089;SDS011;23904;52.322;10.232;2022-09-14T06:21:05;10.00;;;2.78;;
38089;SDS011;23904;52.322;10.232;2022-09-14T06:23:31;11.10;;;3.47;;
38089;SDS011;23904;52.322;10.232;2022-09-14T06:25:58;10.27;;;4.47;;
38089;SDS011;23904;52.322;10.232;2022-09-14T06:28:26;9.10;;;2.88;;
38089;SDS011;23904;52.322;10.232;2022-09-14T06:30:53;13.27;;;3.15;;
38089;SDS011;23904;52.322;10.232;2022-09-14T06:33:19;7.55;;;3.20;;
38089;SDS011;23904;52.322;10.232;2022-09-14T06:38:28;8.02;;;3.03;;
38089;SDS011;23904;52.322;10.232;2022-09-14T06:40:55;12.88;;;2.88;;
38089;SDS011;23904;52.322;10.232;2022-09-14T06:43:24;11.45;;;2.88;;
38089;SDS011;23904;52.322;10.232;2022-09-14T06:45:58;7.75;;;2.53;;
38089;SDS011;23904;52.322;10.232;2022-09-14T06:48:26;9.63;;;2.90;;
38089;SDS011;23904;52.322;10.232;2022-09-14T06:50:55;11.18;;;3.50;;
38089;SDS011;23904;52.322;10.232;2022-09-14T06:53:21;13.35;;;3.33;;
38089;SDS011;23904;52.322;10.232;2022-09-14T06:55:47;12.68;;;3.40;;
38089;SDS011;23904;52.322;10.232;2022-09-14T06:58:13;14.40;;;3.70;;
38089;SDS011;23904;52.322;10.232;2022-09-14T07:00:38;13.52;;;2.83;;
38089;SDS011;23904;52.322;10.232;2022-09-14T07:03:04;8.82;;;2.70;;
38089;SDS011;23904;52.322;10.232;2022-09-14T07:05:30;9.40;;;3.35;;
38089;SDS011;23904;52.322;10.232;2022-09-14T07:07:56;8.20;;;3.20;;
38089;SDS011;23904;52.322;10.232;2022-09-14T07:10:22;7.72;;;3.83;;
38089;SDS011;23904;52.322;10.232;2022-09-14T07:12:52;11.30;;;2.90;;
38089;SDS011;23904;52.322;10.232;2022-09-14T07:15:26;14.68;;;3.50;;
38089;SDS011;23904;52.322;10.232;2022-09-14T07:17:52;8.95;;;2.65;;
38089;SDS011;23904;52.322;10.232;2022-09-14T07:20:18;11.05;;;4.28;;
38089;SDS011;23904;52.322;10.232;2022-09-14T07:22:43;10.38;;;2.85;;
38089;SDS011;23904;52.322;10.232;2022-09-14T07:25:09;6.63;;;3.13;;
38089;SDS011;23904;52.322;10.232;2022-09-14T07:27:35;10.35;;;3.58;;
38089;SDS011;23904;52.322;10.232;2022-09-14T07:30:06;10.43;;;2.70;;
38089;SDS011;23904;52.322;10.232;2022-09-14T07:32:33;11.13;;;2.92;;
38089;SDS011;23904;52.322;10.232;2022-09-14T07:34:58;6.05;;;2.60;;
38089;SDS011;23904;52.322;10.232;2022-09-14T07:37:24;16.67;;;2.70;;
38089;SDS011;23904;52.322;10.232;2022-09-14T07:39:50;10.10;;;2.55;;
38089;SDS011;23904;52.322;10.232;2022-09-14T07:42:16;11.27;;;2.60;;
38089;SDS011;23904;52.322;10.232;2022-09-14T07:44:41;8.45;;;2.53;;
38089;SDS011;23904;52.322;10.232;2022-09-14T07:47:07;9.55;;;3.00;;
38089;SDS011;23904;52.322;10.232;2022-09-14T07:49:32;13.48;;;2.70;;
38089;SDS011;23904;52.322;10.232;2022-09-14T07:51:58;14.45;;;2.70;;
38089;SDS011;23904;52.322;10.232;2022-09-14T07:54:23;9.43;;;2.30;;
38089;SDS011;23904;52.322;10.232;2022-09-14T07:56:49;4.88;;;2.00;;
38089;SDS011;23904;52.322;10.232;2022-09-14T07:59:15;9.00;;;2.33;;
38089;SDS011;23904;52.322;10.232;2022-09-14T08:01:40;12.30;;;2.92;;
38089;SDS011;23904;52.322;10.232;2022-09-14T08:04:06;9.07;;;2.20;;
38089;SDS011;23904;52.322;10.232;2022-09-14T08:06:33;11.60;;;2.72;;
38089;SDS011;23904;52.322;10.232;2022-09-14T08:09:04;15.77;;;6.78;;
38089;SDS011;23904;52.322;10.232;2022-09-14T08:11:31;7.60;;;2.03;;
38089;SDS011;23904;52.322;10.232;2022-09-14T08:14:03;8.93;;;2.38;;
38089;SDS011;23904;52.322;10.232;2022-09-14T08:16:33;11.40;;;2.85;;
38089;SDS011;23904;52.322;10.232;2022-09-14T08:19:02;9.07;;;2.80;;
38089;SDS011;23904;52.322;10.232;2022-09-14T08:21:31;6.78;;;3.03;;
38089;SDS011;23904;52.322;10.232;2022-09-14T08:23:58;14.93;;;3.58;;
38089;SDS011;23904;52.322;10.232;2022-09-14T08:26:26;8.93;;;2.58;;
38089;SDS011;23904;52.322;10.232;2022-09-14T08:28:55;13.00;;;2.45;;
38089;SDS011;23904;52.322;10.232;2022-09-14T08:31:23;11.75;;;3.08;;
38089;SDS011;23904;52.322;10.232;2022-09-14T08:33:51;11.18;;;3.40;;
38089;SDS011;23904;52.322;10.232;2022-09-14T08:36:21;16.75;;;3.90;;
38089;SDS011;23904;52.322;10.232;2022-09-14T08:38:48;9.55;;;2.55;;
38089;SDS011;23904;52.322;10.232;2022-09-14T08:43:47;13.10;;;3.78;;
38089;SDS011;23904;52.322;10.232;2022-09-14T08:46:26;13.93;;;4.18;;
38089;SDS011;23904;52.322;10.232;2022-09-14T08:48:58;10.55;;;4.03;;
38089;SDS011;23904;52.322;10.232;2022-09-14T08:51:25;14.43;;;4.22;;
38089;SDS011;23904;52.322;10.232;2022-09-14T08:53:52;14.77;;;4.07;;
38089;SDS011;23904;52.322;10.232;2022-09-14T08:56:22;8.50;;;3.90;;
38089;SDS011;23904;52.322;10.232;2022-09-14T09:09:49;15.77;;;5.10;;
38089;SDS011;23904;52.322;10.232;2022-09-14T09:12:19;18.77;;;6.55;;
38089;SDS011;23904;52.322;10.232;2022-09-14T09:14:52;16.10;;;6.10;;
38089;SDS011;23904;52.322;10.232;2022-09-14T09:20:03;23.85;;;6.82;;
38089;SDS011;23904;52.322;10.232;2022-09-14T09:22:40;24.85;;;8.82;;
38089;SDS011;23904;52.322;10.232;2022-09-14T09:25:13;18.77;;;8.05;;
38089;SDS011;23904;52.322;10.232;2022-09-14T09:27:54;20.63;;;6.57;;
38089;SDS011;23904;52.322;10.232;2022-09-14T09:30:27;18.88;;;6.60;;
38089;SDS011;23904;52.322;10.232;2022-09-14T09:32:54;14.05;;;5.43;;
38089;SDS011;23904;52.322;10.232;2022-09-14T09:35:22;19.20;;;6.75;;
38089;SDS011;23904;52.322;10.232;2022-09-14T09:37:49;15.27;;;6.03;;
38089;SDS011;23904;52.322;10.232;2022-09-14T09:40:16;21.38;;;6.70;;
38089;SDS011;23904;52.322;10.232;2022-09-14T09:43:07;22.90;;;10.43;;
38089;SDS011;23904;52.322;10.232;2022-09-14T09:48:16;17.30;;;5.40;;
38089;SDS011;23904;52.322;10.232;2022-09-14T09:53:49;17.30;;;4.53;;
38089;SDS011;23904;52.322;10.232;2022-09-14T09:56:37;14.18;;;3.53;;
38089;SDS011;23904;52.322;10.232;2022-09-14T09:59:21;18.05;;;4.47;;
38089;SDS011;23904;52.322;10.232;2022-09-14T10:05:04;20.13;;;5.80;;
38089;SDS011;23904;52.322;10.232;2022-09-14T10:07:50;11.82;;;4.00;;
38089;SDS011;23904;52.322;10.232;2022-09-14T10:10:24;27.55;;;5.18;;
38089;SDS011;23904;52.322;10.232;2022-09-14T10:13:14;12.48;;;2.97;;
38089;SDS011;23904;52.322;10.232;2022-09-14T10:15:50;9.35;;;2.75;;
38089;SDS011;23904;52.322;10.232;2022-09-14T10:18:16;14.70;;;3.83;;
38089;SDS011;23904;52.322;10.232;2022-09-14T10:21:03;13.50;;;3.78;;
38089;SDS011;23904;52.322;10.232;2022-09-14T10:23:33;8.40;;;3.03;;
38089;SDS011;23904;52.322;10.232;2022-09-14T10:28:36;12.63;;;3.38;;
38089;SDS011;23904;52.322;10.232;2022-09-14T10:33:44;9.68;;;3.30;;
38089;SDS011;23904;52.322;10.232;2022-09-14T10:36:14;11.13;;;3.55;;
38089;SDS011;23904;52.322;10.232;2022-09-14T10:39:11;10.25;;;3.03;;
38089;SDS011;23904;52.322;10.232;2022-09-14T10:47:39;7.82;;;2.35;;
38089;SDS011;23904;52.322;10.232;2022-09-14T10:50:53;15.35;;;2.65;;
38089;SDS011;23904;52.322;10.232;2022-09-14T10:56:02;9.65;;;2.10;;
38089;SDS011;23904;52.322;10.232;2022-09-14T10:58:37;9.52;;;2.00;;
38089;SDS011;23904;52.322;10.232;2022-09-14T11:13:06;6.57;;;2.10;;
38089;SDS011;23904;52.322;10.232;2022-09-14T11:16:18;11.32;;;2.00;;
38089;SDS011;23904;52.322;10.232;2022-09-14T11:26:09;8.02;;;2.05;;
38089;SDS011;23904;52.322;10.232;2022-09-14T11:31:50;10.77;;;1.98;;
38089;SDS011;23904;52.322;10.232;2022-09-14T11:34:41;8.30;;;2.22;;
38089;SDS011;23904;52.322;10.232;2022-09-14T11:37:18;11.45;;;2.80;;
38089;SDS011;23904;52.322;10.232;2022-09-14T11:39:58;9.20;;;2.10;;
38089;SDS011;23904;52.322;10.232;2022-09-14T11:45:41;9.63;;;1.80;;
38089;SDS011;23904;52.322;10.232;2022-09-14T11:48:33;8.10;;;1.90;;
38089;SDS011;23904;52.322;10.232;2022-09-14T11:51:11;9.75;;;2.22;;
38089;SDS011;23904;52.322;10.232;2022-09-14T11:53:41;6.45;;;1.85;;
38089;SDS011;23904;52.322;10.232;2022-09-14T11:56:41;8.55;;;2.00;;
38089;SDS011;23904;52.322;10.232;2022-09-14T11:59:03;8.93;;;2.03;;
38089;SDS011;23904;52.322;10.232;2022-09-14T12:04:11;6.90;;;1.98;;
38089;SDS011;23904;52.322;10.232;2022-09-14T12:11:47;7.80;;;1.90;;
38089;SDS011;23904;52.322;10.232;2022-09-14T12:19:53;5.18;;;1.50;;
38089;SDS011;23904;52.322;10.232;2022-09-14T12:22:28;7.20;;;1.40;;
38089;SDS011;23904;52.322;10.232;2022-09-14T12:27:45;9.10;;;2.00;;
38089;SDS011;23904;52.322;10.232;2022-09-14T12:33:07;6.10;;;1.58;;
38089;SDS011;23904;52.322;10.232;2022-09-14T12:35:55;7.57;;;1.73;;
38089;SDS011;23904;52.322;10.232;2022-09-14T12:46:02;6.82;;;1.55;;
38089;SDS011;23904;52.322;10.232;2022-09-14T12:48:56;5.50;;;1.40;;
38089;SDS011;23904;52.322;10.232;2022-09-14T12:53:58;7.18;;;1.73;;
38089;SDS011;23904;52.322;10.232;2022-09-14T12:59:41;7.25;;;1.58;;
38089;SDS011;23904;52.322;10.232;2022-09-14T13:05:14;6.90;;;1.33;;
38089;SDS011;23904;52.322;10.232;2022-09-14T13:07:47;6.85;;;1.63;;
38089;SDS011;23904;52.322;10.232;2022-09-14T13:10:23;6.55;;;1.35;;
38089;SDS011;23904;52.322;10.232;2022-09-14T13:13:01;9.77;;;2.35;;
38089;SDS011;23904;52.322;10.232;2022-09-14T13:15:33;10.05;;;1.58;;
38089;SDS011;23904;52.322;10.232;2022-09-14T13:20:53;14.30;;;1.77;;
38089;SDS011;23904;52.322;10.232;2022-09-14T13:23:41;12.45;;;2.30;;
38089;SDS011;23904;52.322;10.232;2022-09-14T13:26:11;7.03;;;2.00;;
38089;SDS011;23904;52.322;10.232;2022-09-14T13:28:45;6.40;;;1.10;;
38089;SDS011;23904;52.322;10.232;2022-09-14T13:36:53;11.25;;;1.75;;
38089;SDS011;23904;52.322;10.232;2022-09-14T13:39:28;5.32;;;1.38;;
38089;SDS011;23904;52.322;10.232;2022-09-14T13:41:58;6.10;;;1.88;;
38089;SDS011;23904;52.322;10.232;2022-09-14T13:44:40;11.30;;;1.45;;
38089;SDS011;23904;52.322;10.232;2022-09-14T13:47:12;10.82;;;1.67;;
38089;SDS011;23904;52.322;10.232;2022-09-14T13:49:40;6.35;;;1.50;;
38089;SDS011;23904;52.322;10.232;2022-09-14T13:54:50;9.70;;;1.38;;
38089;SDS011;23904;52.322;10.232;2022-09-14T13:57:22;5.90;;;1.35;;
38089;SDS011;23904;52.322;10.232;2022-09-14T14:02:48;7.43;;;1.65;;
38089;SDS011;23904;52.322;10.232;2022-09-14T14:05:29;7.55;;;2.22;;
38089;SDS011;23904;52.322;10.232;2022-09-14T14:08:00;8.80;;;1.65;;
38089;SDS011;23904;52.322;10.232;2022-09-14T14:13:00;7.32;;;1.55;;
38089;SDS011;23904;52.322;10.232;2022-09-14T14:15:32;8.27;;;2.10;;
38089;SDS011;23904;52.322;10.232;2022-09-14T14:21:42;5.07;;;1.67;;
38089;SDS011;23904;52.322;10.232;2022-09-14T14:26:53;7.47;;;1.75;;
38089;SDS011;23904;52.322;10.232;2022-09-14T14:29:21;17.10;;;1.98;;
38089;SDS011;23904;52.322;10.232;2022-09-14T14:31:47;7.05;;;1.70;;
38089;SDS011;23904;52.322;10.232;2022-09-14T14:36:54;6.22;;;1.77;;
38089;SDS011;23904;52.322;10.232;2022-09-14T14:39:21;5.40;;;1.35;;
38089;SDS011;23904;52.322;10.232;2022-09-14T14:41:49;6.70;;;2.30;;
38089;SDS011;23904;52.322;10.232;2022-09-14T14:44:20;7.28;;;2.08;;
38089;SDS011;23904;52.322;10.232;2022-09-14T14:46:49;7.13;;;1.88;;
38089;SDS011;23904;52.322;10.232;2022-09-14T14:49:15;9.57;;;1.90;;
38089;SDS011;23904;52.322;10.232;2022-09-14T14:51:43;6.15;;;2.47;;
38089;SDS011;23904;52.322;10.232;2022-09-14T14:54:09;5.25;;;1.38;;
38089;SDS011;23904;52.322;10.232;2022-09-14T14:56:35;6.07;;;1.48;;
38089;SDS011;23904;52.322;10.232;2022-09-14T14:59:02;7.80;;;1.67;;
38089;SDS011;23904;52.322;10.232;2022-09-14T15:01:39;3.22;;;1.42;;
38089;SDS011;23904;52.322;10.232;2022-09-14T15:04:05;5.07;;;1.50;;
38089;SDS011;23904;52.322;10.232;2022-09-14T15:06:31;8.15;;;2.15;;
38089;SDS011;23904;52.322;10.232;2022-09-14T15:08:56;4.35;;;1.35;;
38089;SDS011;23904;52.322;10.232;2022-09-14T15:11:22;6.93;;;1.50;;
38089;SDS011;23904;52.322;10.232;2022-09-14T15:13:48;8.98;;;2.17;;
38089;SDS011;23904;52.322;10.232;2022-09-14T15:16:13;6.60;;;1.60;;
38089;SDS011;23904;52.322;10.232;2022-09-14T15:18:40;10.02;;;1.70;;
38089;SDS011;23904;52.322;10.232;2022-09-14T15:21:06;6.70;;;2.08;;
38089;SDS011;23904;52.322;10.232;2022-09-14T15:23:32;4.10;;;1.55;;
38089;SDS011;23904;52.322;10.232;2022-09-14T15:25:58;6.95;;;1.42;;
38089;SDS011;23904;52.322;10.232;2022-09-14T15:28:24;10.88;;;2.17;;
38089;SDS011;23904;52.322;10.232;2022-09-14T15:30:49;7.40;;;1.95;;
38089;SDS011;23904;52.322;10.232;2022-09-14T15:33:15;5.78;;;1.48;;
38089;SDS011;23904;52.322;10.232;2022-09-14T15:35:42;8.75;;;2.05;;
38089;SDS011;23904;52.322;10.232;2022-09-14T15:38:08;6.50;;;2.13;;
38089;SDS011;23904;52.322;10.232;2022-09-14T15:40:35;10.75;;;2.25;;
38089;SDS011;23904;52.322;10.232;2022-09-14T15:43:01;9.13;;;2.30;;
38089;SDS011;23904;52.322;10.232;2022-09-14T15:45:28;9.30;;;2.85;;
38089;SDS011;23904;52.322;10.232;2022-09-14T15:47:53;10.00;;;1.75;;
38089;SDS011;23904;52.322;10.232;2022-09-14T15:50:19;7.25;;;1.77;;
38089;SDS011;23904;52.322;10.232;2022-09-14T15:52:44;5.10;;;1.42;;
38089;SDS011;23904;52.322;10.232;2022-09-14T15:55:10;7.30;;;1.52;;
38089;SDS011;23904;52.322;10.232;2022-09-14T15:57:37;7.57;;;2.05;;
38089;SDS011;23904;52.322;10.232;2022-09-14T16:00:04;6.10;;;2.20;;
38089;SDS011;23904;52.322;10.232;2022-09-14T16:02:34;6.15;;;1.58;;
38089;SDS011;23904;52.322;10.232;2022-09-14T16:04:59;9.20;;;2.10;;
38089;SDS011;23904;52.322;10.232;2022-09-14T16:07:26;9.07;;;2.28;;
38089;SDS011;23904;52.322;10.232;2022-09-14T16:09:53;7.38;;;1.83;;
38089;SDS011;23904;52.322;10.232;2022-09-14T16:12:19;5.93;;;1.40;;
38089;SDS011;23904;52.322;10.232;2022-09-14T16:14:45;7.75;;;2.38;;
38089;SDS011;23904;52.322;10.232;2022-09-14T16:17:12;9.02;;;1.73;;
38089;SDS011;23904;52.322;10.232;2022-09-14T16:19:37;7.85;;;1.88;;
38089;SDS011;23904;52.322;10.232;2022-09-14T16:22:03;6.72;;;2.17;;
38089;SDS011;23904;52.322;10.232;2022-09-14T16:24:29;9.15;;;1.98;;
38089;SDS011;23904;52.322;10.232;2022-09-14T16:26:55;7.53;;;1.67;;
38089;SDS011;23904;52.322;10.232;2022-09-14T16:29:22;6.38;;;2.05;;
38089;SDS011;23904;52.322;10.232;2022-09-14T16:31:48;7.72;;;2.08;;
38089;SDS011;23904;52.322;10.232;2022-09-14T16:34:16;7.68;;;2.53;;
38089;SDS011;23904;52.322;10.232;2022-09-14T16:36:45;6.93;;;2.42;;
38089;SDS011;23904;52.322;10.232;2022-09-14T16:39:12;9.80;;;2.58;;
38089;SDS011;23904;52.322;10.232;2022-09-14T16:41:48;7.55;;;2.55;;
38089;SDS011;23904;52.322;10.232;2022-09-14T16:44:15;9.32;;;1.73;;
38089;SDS011;23904;52.322;10.232;2022-09-14T16:46:43;9.38;;;2.50;;
38089;SDS011;23904;52.322;10.232;2022-09-14T16:49:10;5.38;;;1.70;;
38089;SDS011;23904;52.322;10.232;2022-09-14T16:51:36;7.15;;;2.08;;
38089;SDS011;23904;52.322;10.232;2022-09-14T16:54:02;5.60;;;2.30;;
38089;SDS011;23904;52.322;10.232;2022-09-14T16:56:30;9.35;;;2.25;;
38089;SDS011;23904;52.322;10.232;2022-09-14T16:58:58;10.85;;;2.70;;
38089;SDS011;23904;52.322;10.232;2022-09-14T17:01:32;9.75;;;2.10;;
38089;SDS011;23904;52.322;10.232;2022-09-14T17:04:01;7.05;;;2.30;;
38089;SDS011;23904;52.322;10.232;2022-09-14T17:09:03;13.07;;;2.55;;
38089;SDS011;23904;52.322;10.232;2022-09-14T17:11:33;9.90;;;2.92;;
38089;SDS011;23904;52.322;10.232;2022-09-14T17:14:00;12.10;;;2.75;;
38089;SDS011;23904;52.322;10.232;2022-09-14T17:16:27;12.32;;;3.25;;
38089;SDS011;23904;52.322;10.232;2022-09-14T17:18:55;7.03;;;2.60;;
38089;SDS011;23904;52.322;10.232;2022-09-14T17:21:27;10.27;;;3.55;;
38089;SDS011;23904;52.322;10.232;2022-09-14T17:23:58;12.07;;;3.55;;
38089;SDS011;23904;52.322;10.232;2022-09-14T17:26:25;7.80;;;3.08;;